sensor_id;sensor_type;location;lat;lon;timestamp;P1;durP1;ratioP1;P2;durP2;ratioP2
12181;SDS011;6154;51.550;12.138;2023-05-17T00:01:48;1.20;;;0.50;;
12181;SDS011;6154;51.550;12.138;2023-05-17T00:04:17;2.85;;;0.68;;
12181;SDS011;6154;51.550;12.138;2023-05-17T00:06:47;2.10;;;0.50;;
12181;SDS011;6154;51.550;12.138;2023-05-17T00:09:15;3.62;;;0.95;;
12181;SDS011;6154;51.550;12.138;2023-05-17T00:11:46;2.80;;;0.65;;
12181;SDS011;6154;51.550;12.138;2023-05-17T00:14:14;1.73;;;0.80;;
12181;SDS011;6154;51.550;12.138;2023-05-17T00:16:42;2.90;;;0.62;;
12181;SDS011;6154;51.550;12.138;2023-05-17T00:19:11;0.95;;;0.62;;
12181;SDS011;6154;51.550;12.138;2023-05-17T00:21:39;1.65;;;0.68;;
12181;SDS011;6154;51.550;12.138;2023-05-17T00:24:09;1.95;;;0.95;;
12181;SDS011;6154;51.550;12.138;2023-05-17T00:26:37;3.97;;;1.00;;
12181;SDS011;6154;51.550;12.138;2023-05-17T00:29:06;2.72;;;1.02;;
12181;SDS011;6154;51.550;12.138;2023-05-17T00:31:35;2.22;;;0.60;;
12181;SDS011;6154;51.550;12.138;2023-05-17T00:34:03;3.85;;;1.62;;
12181;SDS011;6154;51.550;12.138;2023-05-17T00:36:31;3.85;;;1.17;;
12181;SDS011;6154;51.550;12.138;2023-05-17T00:39:00;2.25;;;0.90;;
12181;SDS011;6154;51.550;12.138;2023-05-17T00:41:32;3.10;;;0.80;;
12181;SDS011;6154;51.550;12.138;2023-05-17T00:44:02;2.17;;;0.65;;
12181;SDS011;6154;51.550;12.138;2023-05-17T00:46:32;2.33;;;0.77;;
12181;SDS011;6154;51.550;12.138;2023-05-17T00:49:00;1.67;;;0.60;;
12181;SDS011;6154;51.550;12.138;2023-05-17T00:51:29;1.92;;;0.60;;
12181;SDS011;6154;51.550;12.138;2023-05-17T00:53:58;3.33;;;0.80;;
12181;SDS011;6154;51.550;12.138;2023-05-17T00:56:27;2.85;;;0.80;;
12181;SDS011;6154;51.550;12.138;2023-05-17T00:58:56;2.65;;;0.60;;
12181;SDS011;6154;51.550;12.138;2023-05-17T01:01:26;1.65;;;0.85;;
12181;SDS011;6154;51.550;12.138;2023-05-17T01:03:54;2.50;;;0.50;;
12181;SDS011;6154;51.550;12.138;2023-05-17T01:06:22;3.15;;;0.93;;
12181;SDS011;6154;51.550;12.138;2023-05-17T01:08:53;2.37;;;0.75;;
12181;SDS011;6154;51.550;12.138;2023-05-17T01:11:23;2.35;;;0.60;;
12181;SDS011;6154;51.550;12.138;2023-05-17T01:14:01;0.85;;;0.73;;
12181;SDS011;6154;51.550;12.138;2023-05-17T01:16:38;3.08;;;1.08;;
12181;SDS011;6154;51.550;12.138;2023-05-17T01:19:12;1.15;;;0.80;;
12181;SDS011;6154;51.550;12.138;2023-05-17T01:21:58;0.93;;;0.82;;
12181;SDS011;6154;51.550;12.138;2023-05-17T01:24:38;3.03;;;1.17;;
12181;SDS011;6154;51.550;12.138;2023-05-17T01:27:18;1.90;;;1.00;;
12181;SDS011;6154;51.550;12.138;2023-05-17T01:29:48;5.50;;;1.10;;
12181;SDS011;6154;51.550;12.138;2023-05-17T01:32:18;1.98;;;0.60;;
12181;SDS011;6154;51.550;12.138;2023-05-17T01:34:46;1.85;;;0.70;;
12181;SDS011;6154;51.550;12.138;2023-05-17T01:37:17;2.67;;;1.10;;
12181;SDS011;6154;51.550;12.138;2023-05-17T01:39:45;1.92;;;0.70;;
12181;SDS011;6154;51.550;12.138;2023-05-17T01:42:16;3.45;;;0.90;;
12181;SDS011;6154;51.550;12.138;2023-05-17T01:44:53;4.65;;;0.80;;
12181;SDS011;6154;51.550;12.138;2023-05-17T01:47:32;2.37;;;0.60;;
12181;SDS011;6154;51.550;12.138;2023-05-17T01:50:07;1.08;;;0.80;;
12181;SDS011;6154;51.550;12.138;2023-05-17T01:52:37;3.25;;;0.82;;
12181;SDS011;6154;51.550;12.138;2023-05-17T01:55:15;2.75;;;1.02;;
12181;SDS011;6154;51.550;12.138;2023-05-17T01:57:52;3.78;;;0.80;;
12181;SDS011;6154;51.550;12.138;2023-05-17T02:00:23;1.27;;;0.55;;
12181;SDS011;6154;51.550;12.138;2023-05-17T02:02:56;1.73;;;0.95;;
12181;SDS011;6154;51.550;12.138;2023-05-17T02:05:24;4.12;;;1.65;;
12181;SDS011;6154;51.550;12.138;2023-05-17T02:07:53;0.55;;;0.55;;
12181;SDS011;6154;51.550;12.138;2023-05-17T02:10:22;4.57;;;1.10;;
12181;SDS011;6154;51.550;12.138;2023-05-17T02:12:52;1.23;;;0.88;;
12181;SDS011;6154;51.550;12.138;2023-05-17T02:15:21;1.60;;;1.12;;
12181;SDS011;6154;51.550;12.138;2023-05-17T02:17:49;3.55;;;0.90;;
12181;SDS011;6154;51.550;12.138;2023-05-17T02:20:18;2.37;;;1.10;;
12181;SDS011;6154;51.550;12.138;2023-05-17T02:22:47;1.25;;;0.57;;
12181;SDS011;6154;51.550;12.138;2023-05-17T02:25:15;4.55;;;1.00;;
12181;SDS011;6154;51.550;12.138;2023-05-17T02:27:44;2.25;;;1.12;;
12181;SDS011;6154;51.550;12.138;2023-05-17T02:30:14;7.05;;;1.73;;
12181;SDS011;6154;51.550;12.138;2023-05-17T02:32:44;2.25;;;1.12;;
12181;SDS011;6154;51.550;12.138;2023-05-17T02:35:13;1.98;;;1.05;;
12181;SDS011;6154;51.550;12.138;2023-05-17T02:37:42;3.75;;;1.00;;
12181;SDS011;6154;51.550;12.138;2023-05-17T02:40:11;1.23;;;0.90;;
12181;SDS011;6154;51.550;12.138;2023-05-17T02:42:40;2.83;;;0.77;;
12181;SDS011;6154;51.550;12.138;2023-05-17T02:45:09;3.80;;;1.50;;
12181;SDS011;6154;51.550;12.138;2023-05-17T02:47:39;2.87;;;1.23;;
12181;SDS011;6154;51.550;12.138;2023-05-17T02:50:09;4.85;;;1.60;;
12181;SDS011;6154;51.550;12.138;2023-05-17T02:52:38;2.22;;;0.68;;
12181;SDS011;6154;51.550;12.138;2023-05-17T02:55:07;4.00;;;1.27;;
12181;SDS011;6154;51.550;12.138;2023-05-17T02:57:35;5.72;;;0.93;;
12181;SDS011;6154;51.550;12.138;2023-05-17T03:00:04;2.42;;;0.93;;
12181;SDS011;6154;51.550;12.138;2023-05-17T03:02:34;2.87;;;1.17;;
12181;SDS011;6154;51.550;12.138;2023-05-17T03:05:04;1.48;;;0.80;;
12181;SDS011;6154;51.550;12.138;2023-05-17T03:07:35;2.65;;;1.00;;
12181;SDS011;6154;51.550;12.138;2023-05-17T03:10:03;1.27;;;0.90;;
12181;SDS011;6154;51.550;12.138;2023-05-17T03:12:33;2.30;;;1.30;;
12181;SDS011;6154;51.550;12.138;2023-05-17T03:15:01;4.43;;;1.45;;
12181;SDS011;6154;51.550;12.138;2023-05-17T03:17:30;1.92;;;0.80;;
12181;SDS011;6154;51.550;12.138;2023-05-17T03:19:59;3.00;;;1.05;;
12181;SDS011;6154;51.550;12.138;2023-05-17T03:22:30;3.55;;;1.20;;
12181;SDS011;6154;51.550;12.138;2023-05-17T03:24:58;3.12;;;1.62;;
12181;SDS011;6154;51.550;12.138;2023-05-17T03:27:27;2.28;;;1.02;;
12181;SDS011;6154;51.550;12.138;2023-05-17T03:29:58;3.65;;;0.95;;
12181;SDS011;6154;51.550;12.138;2023-05-17T03:32:27;3.00;;;1.33;;
12181;SDS011;6154;51.550;12.138;2023-05-17T03:34:59;1.40;;;0.95;;
12181;SDS011;6154;51.550;12.138;2023-05-17T03:37:34;1.98;;;0.80;;
12181;SDS011;6154;51.550;12.138;2023-05-17T03:40:10;1.58;;;1.25;;
12181;SDS011;6154;51.550;12.138;2023-05-17T03:42:42;2.65;;;1.25;;
12181;SDS011;6154;51.550;12.138;2023-05-17T03:45:12;2.95;;;1.23;;
12181;SDS011;6154;51.550;12.138;2023-05-17T03:47:42;6.65;;;1.75;;
12181;SDS011;6154;51.550;12.138;2023-05-17T03:50:11;3.60;;;1.48;;
12181;SDS011;6154;51.550;12.138;2023-05-17T03:52:41;4.53;;;1.25;;
12181;SDS011;6154;51.550;12.138;2023-05-17T03:55:13;3.80;;;2.10;;
12181;SDS011;6154;51.550;12.138;2023-05-17T03:57:42;3.78;;;1.80;;
12181;SDS011;6154;51.550;12.138;2023-05-17T04:00:17;2.08;;;1.23;;
12181;SDS011;6154;51.550;12.138;2023-05-17T04:02:47;3.72;;;1.83;;
12181;SDS011;6154;51.550;12.138;2023-05-17T04:05:18;6.05;;;1.75;;
12181;SDS011;6154;51.550;12.138;2023-05-17T04:07:48;4.37;;;1.80;;
12181;SDS011;6154;51.550;12.138;2023-05-17T04:10:17;5.65;;;1.20;;
12181;SDS011;6154;51.550;12.138;2023-05-17T04:12:45;3.47;;;1.35;;
12181;SDS011;6154;51.550;12.138;2023-05-17T04:15:14;4.55;;;1.55;;
12181;SDS011;6154;51.550;12.138;2023-05-17T04:17:42;3.47;;;1.40;;
12181;SDS011;6154;51.550;12.138;2023-05-17T04:20:11;3.55;;;1.50;;
12181;SDS011;6154;51.550;12.138;2023-05-17T04:22:40;2.45;;;1.50;;
12181;SDS011;6154;51.550;12.138;2023-05-17T04:25:10;2.70;;;1.52;;
12181;SDS011;6154;51.550;12.138;2023-05-17T04:27:39;5.18;;;1.50;;
12181;SDS011;6154;51.550;12.138;2023-05-17T04:30:13;3.17;;;1.70;;
12181;SDS011;6154;51.550;12.138;2023-05-17T04:32:43;4.20;;;1.35;;
12181;SDS011;6154;51.550;12.138;2023-05-17T04:35:11;3.08;;;1.40;;
12181;SDS011;6154;51.550;12.138;2023-05-17T04:37:40;2.10;;;1.25;;
12181;SDS011;6154;51.550;12.138;2023-05-17T04:40:11;3.58;;;1.30;;
12181;SDS011;6154;51.550;12.138;2023-05-17T04:42:40;11.70;;;2.17;;
12181;SDS011;6154;51.550;12.138;2023-05-17T04:45:09;4.55;;;1.60;;
12181;SDS011;6154;51.550;12.138;2023-05-17T04:47:41;2.60;;;1.67;;
12181;SDS011;6154;51.550;12.138;2023-05-17T04:50:10;1.37;;;1.17;;
12181;SDS011;6154;51.550;12.138;2023-05-17T04:52:39;3.33;;;1.95;;
12181;SDS011;6154;51.550;12.138;2023-05-17T04:55:08;3.03;;;1.23;;
12181;SDS011;6154;51.550;12.138;2023-05-17T04:57:38;3.70;;;1.80;;
12181;SDS011;6154;51.550;12.138;2023-05-17T05:00:07;2.40;;;1.67;;
12181;SDS011;6154;51.550;12.138;2023-05-17T05:02:37;3.12;;;1.58;;
12181;SDS011;6154;51.550;12.138;2023-05-17T05:05:08;3.05;;;1.92;;
12181;SDS011;6154;51.550;12.138;2023-05-17T05:07:38;2.08;;;1.35;;
12181;SDS011;6154;51.550;12.138;2023-05-17T05:10:07;5.30;;;2.00;;
12181;SDS011;6154;51.550;12.138;2023-05-17T05:12:39;2.85;;;1.60;;
12181;SDS011;6154;51.550;12.138;2023-05-17T05:15:07;8.15;;;1.90;;
12181;SDS011;6154;51.550;12.138;2023-05-17T05:17:37;2.60;;;1.50;;
12181;SDS011;6154;51.550;12.138;2023-05-17T05:20:06;6.97;;;1.55;;
12181;SDS011;6154;51.550;12.138;2023-05-17T05:22:37;5.70;;;1.95;;
12181;SDS011;6154;51.550;12.138;2023-05-17T05:25:05;4.35;;;1.73;;
12181;SDS011;6154;51.550;12.138;2023-05-17T05:27:34;5.65;;;2.20;;
12181;SDS011;6154;51.550;12.138;2023-05-17T05:30:05;2.20;;;1.60;;
12181;SDS011;6154;51.550;12.138;2023-05-17T05:32:34;5.10;;;2.15;;
12181;SDS011;6154;51.550;12.138;2023-05-17T05:35:04;3.53;;;2.08;;
12181;SDS011;6154;51.550;12.138;2023-05-17T05:37:33;7.85;;;2.47;;
12181;SDS011;6154;51.550;12.138;2023-05-17T05:40:07;7.60;;;2.78;;
12181;SDS011;6154;51.550;12.138;2023-05-17T05:42:36;4.87;;;1.85;;
12181;SDS011;6154;51.550;12.138;2023-05-17T05:45:07;7.43;;;2.75;;
12181;SDS011;6154;51.550;12.138;2023-05-17T05:47:38;8.27;;;2.67;;
12181;SDS011;6154;51.550;12.138;2023-05-17T05:50:07;4.75;;;2.17;;
12181;SDS011;6154;51.550;12.138;2023-05-17T05:52:37;10.35;;;2.60;;
12181;SDS011;6154;51.550;12.138;2023-05-17T05:55:06;6.65;;;1.98;;
12181;SDS011;6154;51.550;12.138;2023-05-17T05:57:36;4.93;;;2.35;;
12181;SDS011;6154;51.550;12.138;2023-05-17T06:00:04;4.82;;;2.05;;
12181;SDS011;6154;51.550;12.138;2023-05-17T06:02:38;5.03;;;2.10;;
12181;SDS011;6154;51.550;12.138;2023-05-17T06:05:07;6.25;;;2.17;;
12181;SDS011;6154;51.550;12.138;2023-05-17T06:07:38;6.22;;;2.70;;
12181;SDS011;6154;51.550;12.138;2023-05-17T06:10:07;7.70;;;2.65;;
12181;SDS011;6154;51.550;12.138;2023-05-17T06:12:36;8.68;;;2.17;;
12181;SDS011;6154;51.550;12.138;2023-05-17T06:15:05;5.57;;;2.25;;
12181;SDS011;6154;51.550;12.138;2023-05-17T06:17:36;6.12;;;2.65;;
12181;SDS011;6154;51.550;12.138;2023-05-17T06:20:04;7.97;;;2.60;;
12181;SDS011;6154;51.550;12.138;2023-05-17T06:22:33;6.22;;;2.45;;
12181;SDS011;6154;51.550;12.138;2023-05-17T06:25:02;6.80;;;2.00;;
12181;SDS011;6154;51.550;12.138;2023-05-17T06:27:30;7.75;;;2.28;;
12181;SDS011;6154;51.550;12.138;2023-05-17T06:29:59;7.65;;;2.15;;
12181;SDS011;6154;51.550;12.138;2023-05-17T06:32:31;3.33;;;1.77;;
12181;SDS011;6154;51.550;12.138;2023-05-17T06:34:59;6.95;;;1.67;;
12181;SDS011;6154;51.550;12.138;2023-05-17T06:37:28;5.85;;;1.67;;
12181;SDS011;6154;51.550;12.138;2023-05-17T06:40:00;6.45;;;1.92;;
12181;SDS011;6154;51.550;12.138;2023-05-17T06:42:42;7.35;;;2.03;;
12181;SDS011;6154;51.550;12.138;2023-05-17T06:45:11;7.40;;;2.28;;
12181;SDS011;6154;51.550;12.138;2023-05-17T06:47:55;6.95;;;2.08;;
12181;SDS011;6154;51.550;12.138;2023-05-17T06:50:26;7.35;;;1.98;;
12181;SDS011;6154;51.550;12.138;2023-05-17T06:52:58;8.20;;;1.75;;
12181;SDS011;6154;51.550;12.138;2023-05-17T06:55:27;7.20;;;1.83;;
12181;SDS011;6154;51.550;12.138;2023-05-17T06:57:57;5.05;;;1.83;;
12181;SDS011;6154;51.550;12.138;2023-05-17T07:00:26;9.05;;;1.77;;
12181;SDS011;6154;51.550;12.138;2023-05-17T07:02:56;8.63;;;1.83;;
12181;SDS011;6154;51.550;12.138;2023-05-17T07:05:28;6.75;;;1.60;;
12181;SDS011;6154;51.550;12.138;2023-05-17T07:07:57;5.85;;;1.60;;
12181;SDS011;6154;51.550;12.138;2023-05-17T07:10:26;5.55;;;1.73;;
12181;SDS011;6154;51.550;12.138;2023-05-17T07:12:54;4.43;;;1.27;;
12181;SDS011;6154;51.550;12.138;2023-05-17T07:15:23;8.65;;;1.95;;
12181;SDS011;6154;51.550;12.138;2023-05-17T07:17:51;5.18;;;1.80;;
12181;SDS011;6154;51.550;12.138;2023-05-17T07:20:21;6.30;;;1.40;;
12181;SDS011;6154;51.550;12.138;2023-05-17T07:22:50;7.00;;;1.87;;
12181;SDS011;6154;51.550;12.138;2023-05-17T07:25:18;5.87;;;0.95;;
12181;SDS011;6154;51.550;12.138;2023-05-17T07:27:47;4.82;;;1.27;;
12181;SDS011;6154;51.550;12.138;2023-05-17T07:30:15;5.93;;;1.23;;
12181;SDS011;6154;51.550;12.138;2023-05-17T07:32:44;6.28;;;1.42;;
12181;SDS011;6154;51.550;12.138;2023-05-17T07:35:15;8.68;;;1.48;;
12181;SDS011;6154;51.550;12.138;2023-05-17T07:37:47;5.95;;;1.35;;
12181;SDS011;6154;51.550;12.138;2023-05-17T07:40:15;4.00;;;0.73;;
12181;SDS011;6154;51.550;12.138;2023-05-17T07:42:43;3.37;;;1.00;;
12181;SDS011;6154;51.550;12.138;2023-05-17T07:45:12;3.35;;;1.10;;
12181;SDS011;6154;51.550;12.138;2023-05-17T07:47:40;4.95;;;1.37;;
12181;SDS011;6154;51.550;12.138;2023-05-17T07:50:09;3.40;;;1.17;;
12181;SDS011;6154;51.550;12.138;2023-05-17T07:52:38;8.73;;;1.50;;
12181;SDS011;6154;51.550;12.138;2023-05-17T07:55:08;3.10;;;1.50;;
12181;SDS011;6154;51.550;12.138;2023-05-17T07:57:37;4.53;;;1.25;;
12181;SDS011;6154;51.550;12.138;2023-05-17T08:00:05;2.60;;;0.90;;
12181;SDS011;6154;51.550;12.138;2023-05-17T08:02:38;4.70;;;1.37;;
12181;SDS011;6154;51.550;12.138;2023-05-17T08:05:07;1.27;;;1.10;;
12181;SDS011;6154;51.550;12.138;2023-05-17T08:07:36;7.70;;;1.30;;
12181;SDS011;6154;51.550;12.138;2023-05-17T08:10:05;5.78;;;1.42;;
12181;SDS011;6154;51.550;12.138;2023-05-17T08:12:35;5.57;;;1.77;;
12181;SDS011;6154;51.550;12.138;2023-05-17T08:15:04;4.40;;;1.40;;
12181;SDS011;6154;51.550;12.138;2023-05-17T08:17:33;2.60;;;1.40;;
12181;SDS011;6154;51.550;12.138;2023-05-17T08:20:05;3.92;;;1.62;;
12181;SDS011;6154;51.550;12.138;2023-05-17T08:22:36;4.37;;;1.70;;
12181;SDS011;6154;51.550;12.138;2023-05-17T08:25:05;4.37;;;1.55;;
12181;SDS011;6154;51.550;12.138;2023-05-17T08:27:36;4.75;;;1.73;;
12181;SDS011;6154;51.550;12.138;2023-05-17T08:30:05;3.50;;;1.50;;
12181;SDS011;6154;51.550;12.138;2023-05-17T08:32:41;5.97;;;1.70;;
12181;SDS011;6154;51.550;12.138;2023-05-17T08:35:11;2.95;;;1.37;;
12181;SDS011;6154;51.550;12.138;2023-05-17T08:37:39;4.12;;;1.75;;
12181;SDS011;6154;51.550;12.138;2023-05-17T08:40:08;2.53;;;1.10;;
12181;SDS011;6154;51.550;12.138;2023-05-17T08:42:39;3.53;;;1.30;;
12181;SDS011;6154;51.550;12.138;2023-05-17T08:45:09;7.53;;;1.17;;
12181;SDS011;6154;51.550;12.138;2023-05-17T08:47:38;2.92;;;0.98;;
12181;SDS011;6154;51.550;12.138;2023-05-17T08:50:09;5.75;;;1.10;;
12181;SDS011;6154;51.550;12.138;2023-05-17T08:52:39;7.75;;;1.62;;
12181;SDS011;6154;51.550;12.138;2023-05-17T08:55:08;0.70;;;0.70;;
12181;SDS011;6154;51.550;12.138;2023-05-17T08:57:37;3.70;;;1.15;;
12181;SDS011;6154;51.550;12.138;2023-05-17T09:00:08;3.10;;;0.98;;
12181;SDS011;6154;51.550;12.138;2023-05-17T09:02:40;4.62;;;1.30;;
12181;SDS011;6154;51.550;12.138;2023-05-17T09:05:10;5.07;;;1.40;;
12181;SDS011;6154;51.550;12.138;2023-05-17T09:07:40;5.53;;;1.20;;
12181;SDS011;6154;51.550;12.138;2023-05-17T09:10:09;4.72;;;1.10;;
12181;SDS011;6154;51.550;12.138;2023-05-17T09:12:42;3.87;;;1.20;;
12181;SDS011;6154;51.550;12.138;2023-05-17T09:15:15;4.50;;;1.00;;
12181;SDS011;6154;51.550;12.138;2023-05-17T09:17:49;5.75;;;1.55;;
12181;SDS011;6154;51.550;12.138;2023-05-17T09:20:22;10.73;;;1.58;;
12181;SDS011;6154;51.550;12.138;2023-05-17T09:22:51;2.83;;;1.35;;
12181;SDS011;6154;51.550;12.138;2023-05-17T09:25:19;4.57;;;1.48;;
12181;SDS011;6154;51.550;12.138;2023-05-17T09:27:51;4.90;;;1.80;;
12181;SDS011;6154;51.550;12.138;2023-05-17T09:30:26;3.35;;;1.05;;
12181;SDS011;6154;51.550;12.138;2023-05-17T09:32:56;5.47;;;1.35;;
12181;SDS011;6154;51.550;12.138;2023-05-17T09:35:28;4.45;;;1.27;;
12181;SDS011;6154;51.550;12.138;2023-05-17T09:38:05;3.03;;;1.10;;
12181;SDS011;6154;51.550;12.138;2023-05-17T09:40:36;4.93;;;1.35;;
12181;SDS011;6154;51.550;12.138;2023-05-17T09:43:11;8.15;;;2.42;;
12181;SDS011;6154;51.550;12.138;2023-05-17T09:45:41;3.62;;;1.25;;
12181;SDS011;6154;51.550;12.138;2023-05-17T09:48:11;2.25;;;1.00;;
12181;SDS011;6154;51.550;12.138;2023-05-17T09:50:44;2.45;;;0.75;;
12181;SDS011;6154;51.550;12.138;2023-05-17T09:53:26;4.85;;;1.17;;
12181;SDS011;6154;51.550;12.138;2023-05-17T09:55:56;6.70;;;1.08;;
12181;SDS011;6154;51.550;12.138;2023-05-17T09:58:26;5.78;;;1.02;;
12181;SDS011;6154;51.550;12.138;2023-05-17T10:00:57;8.07;;;2.17;;
12181;SDS011;6154;51.550;12.138;2023-05-17T10:03:29;5.30;;;1.25;;
12181;SDS011;6154;51.550;12.138;2023-05-17T10:05:59;4.25;;;0.62;;
12181;SDS011;6154;51.550;12.138;2023-05-17T10:08:30;7.20;;;1.30;;
12181;SDS011;6154;51.550;12.138;2023-05-17T10:11:01;3.30;;;0.77;;
12181;SDS011;6154;51.550;12.138;2023-05-17T10:13:33;3.62;;;0.85;;
12181;SDS011;6154;51.550;12.138;2023-05-17T10:16:08;5.87;;;1.25;;
12181;SDS011;6154;51.550;12.138;2023-05-17T10:18:39;5.78;;;0.93;;
12181;SDS011;6154;51.550;12.138;2023-05-17T10:21:07;3.83;;;1.08;;
12181;SDS011;6154;51.550;12.138;2023-05-17T10:23:36;4.28;;;1.23;;
12181;SDS011;6154;51.550;12.138;2023-05-17T10:26:08;3.05;;;1.15;;
12181;SDS011;6154;51.550;12.138;2023-05-17T10:28:37;4.10;;;0.98;;
12181;SDS011;6154;51.550;12.138;2023-05-17T10:31:06;4.18;;;1.10;;
12181;SDS011;6154;51.550;12.138;2023-05-17T10:33:36;4.03;;;1.00;;
12181;SDS011;6154;51.550;12.138;2023-05-17T10:36:06;3.47;;;1.00;;
12181;SDS011;6154;51.550;12.138;2023-05-17T10:38:35;4.03;;;1.00;;
12181;SDS011;6154;51.550;12.138;2023-05-17T10:41:08;5.20;;;1.20;;
12181;SDS011;6154;51.550;12.138;2023-05-17T10:43:39;3.70;;;1.00;;
12181;SDS011;6154;51.550;12.138;2023-05-17T10:46:13;3.08;;;1.08;;
12181;SDS011;6154;51.550;12.138;2023-05-17T10:48:44;3.87;;;0.85;;
12181;SDS011;6154;51.550;12.138;2023-05-17T10:51:17;2.25;;;0.90;;
12181;SDS011;6154;51.550;12.138;2023-05-17T10:54:03;2.85;;;0.80;;
12181;SDS011;6154;51.550;12.138;2023-05-17T10:56:32;1.60;;;0.65;;
12181;SDS011;6154;51.550;12.138;2023-05-17T10:59:13;2.28;;;0.75;;
12181;SDS011;6154;51.550;12.138;2023-05-17T11:01:52;3.30;;;0.90;;
12181;SDS011;6154;51.550;12.138;2023-05-17T11:04:27;4.00;;;0.82;;
12181;SDS011;6154;51.550;12.138;2023-05-17T11:09:50;6.22;;;0.73;;
12181;SDS011;6154;51.550;12.138;2023-05-17T11:12:31;5.35;;;1.12;;
12181;SDS011;6154;51.550;12.138;2023-05-17T11:15:06;2.90;;;0.98;;
12181;SDS011;6154;51.550;12.138;2023-05-17T11:17:46;6.55;;;1.10;;
12181;SDS011;6154;51.550;12.138;2023-05-17T11:23:04;3.62;;;0.85;;
12181;SDS011;6154;51.550;12.138;2023-05-17T11:25:34;3.90;;;0.85;;
12181;SDS011;6154;51.550;12.138;2023-05-17T11:28:06;4.05;;;1.00;;
12181;SDS011;6154;51.550;12.138;2023-05-17T11:30:39;2.83;;;0.70;;
12181;SDS011;6154;51.550;12.138;2023-05-17T11:33:09;4.20;;;0.88;;
12181;SDS011;6154;51.550;12.138;2023-05-17T11:35:52;3.60;;;0.73;;
12181;SDS011;6154;51.550;12.138;2023-05-17T11:38:21;4.40;;;1.10;;
12181;SDS011;6154;51.550;12.138;2023-05-17T11:40:56;4.22;;;0.73;;
12181;SDS011;6154;51.550;12.138;2023-05-17T11:43:25;3.30;;;0.98;;
12181;SDS011;6154;51.550;12.138;2023-05-17T11:45:57;3.53;;;0.73;;
12181;SDS011;6154;51.550;12.138;2023-05-17T11:48:28;2.65;;;0.88;;
12181;SDS011;6154;51.550;12.138;2023-05-17T11:50:59;4.43;;;1.00;;
12181;SDS011;6154;51.550;12.138;2023-05-17T11:53:30;4.22;;;0.93;;
12181;SDS011;6154;51.550;12.138;2023-05-17T11:55:58;5.37;;;0.82;;
12181;SDS011;6154;51.550;12.138;2023-05-17T11:58:29;5.07;;;1.27;;
12181;SDS011;6154;51.550;12.138;2023-05-17T12:00:59;4.78;;;1.00;;
12181;SDS011;6154;51.550;12.138;2023-05-17T12:03:30;7.18;;;1.98;;
12181;SDS011;6154;51.550;12.138;2023-05-17T12:06:04;6.15;;;0.93;;
12181;SDS011;6154;51.550;12.138;2023-05-17T12:08:36;3.37;;;0.80;;
12181;SDS011;6154;51.550;12.138;2023-05-17T12:11:06;4.00;;;1.10;;
12181;SDS011;6154;51.550;12.138;2023-05-17T12:13:39;7.25;;;1.23;;
12181;SDS011;6154;51.550;12.138;2023-05-17T12:16:08;3.25;;;1.02;;
12181;SDS011;6154;51.550;12.138;2023-05-17T12:18:43;3.78;;;0.93;;
12181;SDS011;6154;51.550;12.138;2023-05-17T12:21:13;3.62;;;0.90;;
12181;SDS011;6154;51.550;12.138;2023-05-17T12:23:44;3.97;;;0.90;;
12181;SDS011;6154;51.550;12.138;2023-05-17T12:26:17;2.45;;;0.60;;
12181;SDS011;6154;51.550;12.138;2023-05-17T12:28:52;6.75;;;1.12;;
12181;SDS011;6154;51.550;12.138;2023-05-17T12:31:24;4.72;;;0.77;;
12181;SDS011;6154;51.550;12.138;2023-05-17T12:33:54;3.20;;;0.85;;
12181;SDS011;6154;51.550;12.138;2023-05-17T12:36:26;4.30;;;0.82;;
12181;SDS011;6154;51.550;12.138;2023-05-17T12:38:56;8.40;;;1.12;;
12181;SDS011;6154;51.550;12.138;2023-05-17T12:41:24;2.15;;;0.98;;
12181;SDS011;6154;51.550;12.138;2023-05-17T12:43:53;3.25;;;0.62;;
12181;SDS011;6154;51.550;12.138;2023-05-17T12:46:39;3.15;;;0.70;;
12181;SDS011;6154;51.550;12.138;2023-05-17T12:49:08;3.40;;;0.88;;
12181;SDS011;6154;51.550;12.138;2023-05-17T12:51:43;5.78;;;1.45;;
12181;SDS011;6154;51.550;12.138;2023-05-17T12:54:12;3.05;;;0.70;;
12181;SDS011;6154;51.550;12.138;2023-05-17T12:56:42;6.68;;;1.25;;
12181;SDS011;6154;51.550;12.138;2023-05-17T12:59:11;5.05;;;1.00;;
12181;SDS011;6154;51.550;12.138;2023-05-17T13:01:43;3.72;;;0.98;;
12181;SDS011;6154;51.550;12.138;2023-05-17T13:04:12;4.53;;;1.20;;
12181;SDS011;6154;51.550;12.138;2023-05-17T13:06:45;5.62;;;0.90;;
12181;SDS011;6154;51.550;12.138;2023-05-17T13:09:14;3.80;;;1.33;;
12181;SDS011;6154;51.550;12.138;2023-05-17T13:11:48;3.42;;;0.93;;
12181;SDS011;6154;51.550;12.138;2023-05-17T13:14:31;2.87;;;0.70;;
12181;SDS011;6154;51.550;12.138;2023-05-17T13:17:00;2.78;;;0.68;;
12181;SDS011;6154;51.550;12.138;2023-05-17T13:19:29;4.20;;;1.08;;
12181;SDS011;6154;51.550;12.138;2023-05-17T13:21:59;4.68;;;1.17;;
12181;SDS011;6154;51.550;12.138;2023-05-17T13:24:30;2.22;;;1.05;;
12181;SDS011;6154;51.550;12.138;2023-05-17T13:27:04;5.82;;;0.98;;
12181;SDS011;6154;51.550;12.138;2023-05-17T13:29:34;6.65;;;1.30;;
12181;SDS011;6154;51.550;12.138;2023-05-17T13:32:06;5.75;;;1.25;;
12181;SDS011;6154;51.550;12.138;2023-05-17T13:34:35;2.83;;;1.00;;
12181;SDS011;6154;51.550;12.138;2023-05-17T13:37:05;7.00;;;1.42;;
12181;SDS011;6154;51.550;12.138;2023-05-17T13:39:38;4.28;;;1.48;;
12181;SDS011;6154;51.550;12.138;2023-05-17T13:42:06;4.15;;;1.15;;
12181;SDS011;6154;51.550;12.138;2023-05-17T13:44:35;4.90;;;1.17;;
12181;SDS011;6154;51.550;12.138;2023-05-17T13:47:04;1.45;;;0.70;;
12181;SDS011;6154;51.550;12.138;2023-05-17T13:49:32;4.47;;;1.15;;
12181;SDS011;6154;51.550;12.138;2023-05-17T13:52:01;7.93;;;1.00;;
12181;SDS011;6154;51.550;12.138;2023-05-17T13:54:36;3.87;;;1.20;;
12181;SDS011;6154;51.550;12.138;2023-05-17T13:57:05;3.42;;;0.90;;
12181;SDS011;6154;51.550;12.138;2023-05-17T13:59:34;2.90;;;1.00;;
12181;SDS011;6154;51.550;12.138;2023-05-17T14:02:02;5.75;;;0.93;;
12181;SDS011;6154;51.550;12.138;2023-05-17T14:04:31;1.23;;;0.70;;
12181;SDS011;6154;51.550;12.138;2023-05-17T14:07:00;1.45;;;0.57;;
12181;SDS011;6154;51.550;12.138;2023-05-17T14:09:29;4.20;;;1.50;;
12181;SDS011;6154;51.550;12.138;2023-05-17T14:12:01;2.78;;;0.65;;
12181;SDS011;6154;51.550;12.138;2023-05-17T14:14:29;3.90;;;1.17;;
12181;SDS011;6154;51.550;12.138;2023-05-17T14:16:57;2.05;;;0.80;;
12181;SDS011;6154;51.550;12.138;2023-05-17T14:19:27;4.37;;;0.80;;
12181;SDS011;6154;51.550;12.138;2023-05-17T14:21:56;5.03;;;1.20;;
12181;SDS011;6154;51.550;12.138;2023-05-17T14:24:24;3.85;;;1.02;;
12181;SDS011;6154;51.550;12.138;2023-05-17T14:26:52;5.53;;;1.08;;
12181;SDS011;6154;51.550;12.138;2023-05-17T14:29:22;4.15;;;0.73;;
12181;SDS011;6154;51.550;12.138;2023-05-17T14:31:50;7.62;;;1.40;;
12181;SDS011;6154;51.550;12.138;2023-05-17T14:34:19;10.00;;;0.95;;
12181;SDS011;6154;51.550;12.138;2023-05-17T14:36:50;2.15;;;0.50;;
12181;SDS011;6154;51.550;12.138;2023-05-17T14:39:19;3.25;;;0.80;;
12181;SDS011;6154;51.550;12.138;2023-05-17T14:41:47;3.08;;;0.70;;
12181;SDS011;6154;51.550;12.138;2023-05-17T14:44:15;3.03;;;0.68;;
12181;SDS011;6154;51.550;12.138;2023-05-17T14:46:45;4.43;;;0.80;;
12181;SDS011;6154;51.550;12.138;2023-05-17T14:49:13;5.20;;;1.60;;
12181;SDS011;6154;51.550;12.138;2023-05-17T14:51:41;5.40;;;0.75;;
12181;SDS011;6154;51.550;12.138;2023-05-17T14:54:10;4.97;;;1.10;;
12181;SDS011;6154;51.550;12.138;2023-05-17T14:56:39;6.37;;;0.93;;
12181;SDS011;6154;51.550;12.138;2023-05-17T14:59:08;4.43;;;0.80;;
12181;SDS011;6154;51.550;12.138;2023-05-17T15:01:36;6.35;;;1.60;;
12181;SDS011;6154;51.550;12.138;2023-05-17T15:04:05;2.35;;;0.70;;
12181;SDS011;6154;51.550;12.138;2023-05-17T15:06:35;2.85;;;0.93;;
12181;SDS011;6154;51.550;12.138;2023-05-17T15:09:04;4.30;;;0.62;;
12181;SDS011;6154;51.550;12.138;2023-05-17T15:11:33;2.47;;;1.08;;
12181;SDS011;6154;51.550;12.138;2023-05-17T15:14:02;6.30;;;1.35;;